• vieta
  • image
  • image
  • image
mod_vvisit_countermod_vvisit_countermod_vvisit_countermod_vvisit_countermod_vvisit_countermod_vvisit_countermod_vvisit_counter
mod_vvisit_counterŠiandien51
mod_vvisit_counterVakar311
mod_vvisit_counterŠią savaitę1258
mod_vvisit_counterPraėjusią savaitę4842
mod_vvisit_counterŠį mėnesį12826
mod_vvisit_counterPraėjusį mėnesį22275
mod_vvisit_counterViso1021058

Mes turime: 10 svečius online
Jūsų IP: 54.92.211.239
 , 
Šiandien: Lap 21, 2018
Oro uostas / Informacija keleiviams / Taisyklės / Gyvūnų gabenimas

Gyvūnų gabenimas

Šiame skyriuje pateikiama Valstybinės Maisto ir veterinarijos tarnybos informaciją apie Nekomercinį šunų, kačių ir šeškų judėjimą Europos Sąjungoje ir įvežimą iš trečiųjų šalių.

Nekomerciniu naminių gyvūnėlių judėjimu vadinamas gyvūnėlių pervežimas, judėjimas, kai į kitas šalis vykstantys asmenys kartu vežasi savo augintinius (iki 5 naminių gyvūnėlių), nesiekdami jų ten parduoti.

Asmenims, keliaujantiems su naminiais gyvūnėliais, pravartu susipažinti su šiais reikalavimais: 2003 m. gegužės 26 d. Europos Parlamento ir Tarybos reglamente (EB) Nr. 998/2003 dėl gyvūnų sveikatos reikalavimų, taikomų nekomerciniais tikslais vežamiems naminiams gyvūnėliams, iš dalies keičiančiame Tarybos direktyvą 92/65/EEB

 

Taip pat 2008 m. gegužės 21 d. Europos parlamento ir Tarybos Reglamento (EB) nr. 454/2008 iš dalies keičiančio Reglamentą (EB) Nr. 998/2003 dėl gyvūnų sveikatos reikalavimų, taikomų nekomerciniam naminių gyvūnėlių judėjimui, pratęsiant pereinamąjį laikotarpį

Keliaujant su naminiu gyvūnu, dėl reikalavimų tokiai kelionei kreipkitės į oro linijų bendrovę, kurios paslaugomis ketinate pasinaudoti.

Daugiau informacijos galite rasti čia: Valstybinė Maisto ir veterinarijos tarnyba

 

Šiandien

Trečiadienis, 21 Lapkritis 2018

Orų prognozė aviacijai

[source: ADDS]
METAR
EYSA 202350Z AUTO 03006KT 010V070 9999NDV OVC004 M03/M03 Q1030 R14L/09//95 =
TAF EYSA 202303Z 2100/2109 VRB05KT 5000 BR OVC005 TEMPO 2100/2109 3000
TAF
TAF EYSA 202303Z 2100/2109 VRB05KT 5000 BR OVC005 TEMPO 2100/2109 3000 =
SR / SS: 06:12 / 14:15 UTC (EYSA 2018-11-21)

Paieška

Lankytojai

Mes turime 9 svečius online

tic logo lt